sensor_id;sensor_type;location;lat;lon;timestamp;P1;durP1;ratioP1;P2;durP2;ratioP2
10114;SDS011;5097;43.260;27.812;2022-12-16T00:02:20;8.03;;;7.07;;
10114;SDS011;5097;43.260;27.812;2022-12-16T00:05:04;10.23;;;8.20;;
10114;SDS011;5097;43.260;27.812;2022-12-16T00:07:49;7.43;;;6.70;;
10114;SDS011;5097;43.260;27.812;2022-12-16T00:10:32;10.43;;;7.50;;
10114;SDS011;5097;43.260;27.812;2022-12-16T00:13:37;9.07;;;8.13;;
10114;SDS011;5097;43.260;27.812;2022-12-16T00:16:22;11.03;;;8.93;;
10114;SDS011;5097;43.260;27.812;2022-12-16T00:19:06;10.73;;;9.00;;
10114;SDS011;5097;43.260;27.812;2022-12-16T00:21:50;11.70;;;8.50;;
10114;SDS011;5097;43.260;27.812;2022-12-16T00:24:35;12.17;;;9.90;;
10114;SDS011;5097;43.260;27.812;2022-12-16T00:27:19;11.63;;;9.77;;
10114;SDS011;5097;43.260;27.812;2022-12-16T00:30:05;12.77;;;11.37;;
10114;SDS011;5097;43.260;27.812;2022-12-16T00:32:49;12.40;;;10.93;;
10114;SDS011;5097;43.260;27.812;2022-12-16T00:35:34;11.43;;;10.23;;
10114;SDS011;5097;43.260;27.812;2022-12-16T00:38:25;13.70;;;10.90;;
10114;SDS011;5097;43.260;27.812;2022-12-16T00:41:09;11.33;;;10.10;;
10114;SDS011;5097;43.260;27.812;2022-12-16T00:43:53;12.27;;;9.97;;
10114;SDS011;5097;43.260;27.812;2022-12-16T00:46:38;13.40;;;12.00;;
10114;SDS011;5097;43.260;27.812;2022-12-16T00:49:22;14.53;;;12.67;;
10114;SDS011;5097;43.260;27.812;2022-12-16T00:52:05;17.00;;;13.30;;
10114;SDS011;5097;43.260;27.812;2022-12-16T00:54:49;17.10;;;14.67;;
10114;SDS011;5097;43.260;27.812;2022-12-16T00:57:33;26.10;;;18.30;;
10114;SDS011;5097;43.260;27.812;2022-12-16T01:00:17;21.50;;;17.90;;
10114;SDS011;5097;43.260;27.812;2022-12-16T01:03:03;22.67;;;17.73;;
10114;SDS011;5097;43.260;27.812;2022-12-16T01:05:47;23.43;;;19.43;;
10114;SDS011;5097;43.260;27.812;2022-12-16T01:08:31;24.13;;;20.17;;
10114;SDS011;5097;43.260;27.812;2022-12-16T01:11:15;27.70;;;21.33;;
10114;SDS011;5097;43.260;27.812;2022-12-16T01:13:59;27.47;;;22.13;;
10114;SDS011;5097;43.260;27.812;2022-12-16T01:16:43;25.93;;;22.10;;
10114;SDS011;5097;43.260;27.812;2022-12-16T01:19:29;29.27;;;23.37;;
10114;SDS011;5097;43.260;27.812;2022-12-16T01:22:12;24.50;;;21.00;;
10114;SDS011;5097;43.260;27.812;2022-12-16T01:24:56;25.77;;;21.17;;
10114;SDS011;5097;43.260;27.812;2022-12-16T01:27:40;25.73;;;21.73;;
10114;SDS011;5097;43.260;27.812;2022-12-16T01:30:24;24.97;;;21.67;;
10114;SDS011;5097;43.260;27.812;2022-12-16T01:33:08;25.57;;;21.80;;
10114;SDS011;5097;43.260;27.812;2022-12-16T01:35:58;24.93;;;21.53;;
10114;SDS011;5097;43.260;27.812;2022-12-16T01:38:43;24.47;;;20.40;;
10114;SDS011;5097;43.260;27.812;2022-12-16T01:41:27;26.50;;;19.93;;
10114;SDS011;5097;43.260;27.812;2022-12-16T01:44:11;20.80;;;18.27;;
10114;SDS011;5097;43.260;27.812;2022-12-16T01:46:57;18.93;;;15.60;;
10114;SDS011;5097;43.260;27.812;2022-12-16T01:49:46;18.80;;;16.30;;
10114;SDS011;5097;43.260;27.812;2022-12-16T01:52:37;20.80;;;16.70;;
10114;SDS011;5097;43.260;27.812;2022-12-16T01:55:27;21.03;;;18.13;;
10114;SDS011;5097;43.260;27.812;2022-12-16T01:58:15;20.23;;;18.03;;
10114;SDS011;5097;43.260;27.812;2022-12-16T02:01:03;20.63;;;17.43;;
10114;SDS011;5097;43.260;27.812;2022-12-16T02:03:47;20.53;;;18.33;;
10114;SDS011;5097;43.260;27.812;2022-12-16T02:06:33;20.50;;;18.23;;
10114;SDS011;5097;43.260;27.812;2022-12-16T02:09:18;23.37;;;19.73;;
10114;SDS011;5097;43.260;27.812;2022-12-16T02:12:12;22.13;;;19.73;;
10114;SDS011;5097;43.260;27.812;2022-12-16T02:15:09;21.17;;;17.83;;
10114;SDS011;5097;43.260;27.812;2022-12-16T02:18:04;21.00;;;17.77;;
10114;SDS011;5097;43.260;27.812;2022-12-16T02:21:08;21.20;;;18.10;;
10114;SDS011;5097;43.260;27.812;2022-12-16T02:30:48;22.70;;;19.20;;
10114;SDS011;5097;43.260;27.812;2022-12-16T02:33:42;21.43;;;19.23;;
10114;SDS011;5097;43.260;27.812;2022-12-16T02:36:36;22.30;;;19.47;;
10114;SDS011;5097;43.260;27.812;2022-12-16T02:39:28;20.87;;;18.67;;
10114;SDS011;5097;43.260;27.812;2022-12-16T02:42:20;23.20;;;20.60;;
10114;SDS011;5097;43.260;27.812;2022-12-16T02:45:12;23.33;;;20.87;;
10114;SDS011;5097;43.260;27.812;2022-12-16T02:48:00;24.07;;;19.70;;
10114;SDS011;5097;43.260;27.812;2022-12-16T02:50:44;24.53;;;20.27;;
10114;SDS011;5097;43.260;27.812;2022-12-16T02:53:33;22.50;;;20.10;;
10114;SDS011;5097;43.260;27.812;2022-12-16T02:56:24;23.90;;;20.17;;
10114;SDS011;5097;43.260;27.812;2022-12-16T02:59:15;24.90;;;21.20;;
10114;SDS011;5097;43.260;27.812;2022-12-16T03:02:07;22.63;;;20.17;;
10114;SDS011;5097;43.260;27.812;2022-12-16T03:04:57;23.40;;;19.73;;
10114;SDS011;5097;43.260;27.812;2022-12-16T03:07:48;24.33;;;20.63;;
10114;SDS011;5097;43.260;27.812;2022-12-16T03:10:36;21.33;;;19.13;;
10114;SDS011;5097;43.260;27.812;2022-12-16T03:13:23;21.27;;;18.97;;
10114;SDS011;5097;43.260;27.812;2022-12-16T03:16:10;22.83;;;19.23;;
10114;SDS011;5097;43.260;27.812;2022-12-16T03:18:59;20.80;;;18.50;;
10114;SDS011;5097;43.260;27.812;2022-12-16T03:21:49;22.63;;;19.33;;
10114;SDS011;5097;43.260;27.812;2022-12-16T03:24:38;19.13;;;17.17;;
10114;SDS011;5097;43.260;27.812;2022-12-16T03:27:23;17.53;;;15.73;;
10114;SDS011;5097;43.260;27.812;2022-12-16T03:30:12;16.50;;;14.87;;
10114;SDS011;5097;43.260;27.812;2022-12-16T03:33:00;17.53;;;15.50;;
10114;SDS011;5097;43.260;27.812;2022-12-16T03:35:46;16.93;;;15.23;;
10114;SDS011;5097;43.260;27.812;2022-12-16T03:38:35;17.63;;;15.90;;
10114;SDS011;5097;43.260;27.812;2022-12-16T03:41:21;17.13;;;15.27;;
10114;SDS011;5097;43.260;27.812;2022-12-16T03:44:06;21.17;;;17.60;;
10114;SDS011;5097;43.260;27.812;2022-12-16T03:46:50;20.97;;;16.90;;
10114;SDS011;5097;43.260;27.812;2022-12-16T03:49:34;21.97;;;19.37;;
10114;SDS011;5097;43.260;27.812;2022-12-16T03:52:18;19.70;;;16.87;;
10114;SDS011;5097;43.260;27.812;2022-12-16T03:55:04;18.07;;;16.17;;
10114;SDS011;5097;43.260;27.812;2022-12-16T03:57:48;18.20;;;16.30;;
10114;SDS011;5097;43.260;27.812;2022-12-16T04:00:32;17.47;;;15.77;;
10114;SDS011;5097;43.260;27.812;2022-12-16T04:03:16;18.67;;;16.80;;
10114;SDS011;5097;43.260;27.812;2022-12-16T04:05:59;18.63;;;16.57;;
10114;SDS011;5097;43.260;27.812;2022-12-16T04:08:44;18.33;;;16.47;;
10114;SDS011;5097;43.260;27.812;2022-12-16T04:11:29;20.20;;;18.20;;
10114;SDS011;5097;43.260;27.812;2022-12-16T04:14:45;20.23;;;18.17;;
10114;SDS011;5097;43.260;27.812;2022-12-16T04:17:45;21.23;;;19.10;;
10114;SDS011;5097;43.260;27.812;2022-12-16T04:20:46;21.03;;;18.87;;
10114;SDS011;5097;43.260;27.812;2022-12-16T04:23:52;20.47;;;18.20;;
10114;SDS011;5097;43.260;27.812;2022-12-16T04:26:58;20.40;;;18.23;;
10114;SDS011;5097;43.260;27.812;2022-12-16T04:30:01;20.33;;;17.93;;
10114;SDS011;5097;43.260;27.812;2022-12-16T04:33:02;18.43;;;16.63;;
10114;SDS011;5097;43.260;27.812;2022-12-16T04:36:05;19.67;;;17.60;;
10114;SDS011;5097;43.260;27.812;2022-12-16T04:39:07;21.10;;;18.27;;
10114;SDS011;5097;43.260;27.812;2022-12-16T04:42:10;19.00;;;16.97;;
10114;SDS011;5097;43.260;27.812;2022-12-16T04:45:11;21.90;;;19.60;;
10114;SDS011;5097;43.260;27.812;2022-12-16T04:48:13;20.50;;;18.30;;
10114;SDS011;5097;43.260;27.812;2022-12-16T04:51:14;21.27;;;18.63;;
10114;SDS011;5097;43.260;27.812;2022-12-16T04:54:15;22.17;;;18.43;;
10114;SDS011;5097;43.260;27.812;2022-12-16T04:57:18;22.40;;;18.60;;
10114;SDS011;5097;43.260;27.812;2022-12-16T05:00:19;19.60;;;17.63;;
10114;SDS011;5097;43.260;27.812;2022-12-16T05:03:21;19.83;;;17.70;;
10114;SDS011;5097;43.260;27.812;2022-12-16T05:06:22;18.53;;;16.50;;
10114;SDS011;5097;43.260;27.812;2022-12-16T05:09:24;20.50;;;17.10;;
10114;SDS011;5097;43.260;27.812;2022-12-16T05:12:27;19.97;;;16.83;;
10114;SDS011;5097;43.260;27.812;2022-12-16T05:15:28;18.77;;;14.87;;
10114;SDS011;5097;43.260;27.812;2022-12-16T05:18:29;20.07;;;15.20;;
10114;SDS011;5097;43.260;27.812;2022-12-16T05:21:30;16.50;;;14.83;;
10114;SDS011;5097;43.260;27.812;2022-12-16T05:24:31;16.77;;;15.07;;
10114;SDS011;5097;43.260;27.812;2022-12-16T05:27:35;15.33;;;13.73;;
10114;SDS011;5097;43.260;27.812;2022-12-16T05:30:37;15.30;;;13.73;;
10114;SDS011;5097;43.260;27.812;2022-12-16T05:33:39;15.63;;;14.00;;
10114;SDS011;5097;43.260;27.812;2022-12-16T05:36:41;16.80;;;15.10;;
10114;SDS011;5097;43.260;27.812;2022-12-16T05:39:42;17.70;;;14.70;;
10114;SDS011;5097;43.260;27.812;2022-12-16T05:42:47;15.53;;;13.93;;
10114;SDS011;5097;43.260;27.812;2022-12-16T05:45:55;14.83;;;13.43;;
10114;SDS011;5097;43.260;27.812;2022-12-16T05:48:57;17.47;;;14.47;;
10114;SDS011;5097;43.260;27.812;2022-12-16T05:51:59;16.00;;;14.33;;
10114;SDS011;5097;43.260;27.812;2022-12-16T05:55:00;15.63;;;13.97;;
10114;SDS011;5097;43.260;27.812;2022-12-16T05:58:03;13.90;;;12.50;;
10114;SDS011;5097;43.260;27.812;2022-12-16T06:01:05;14.20;;;12.67;;
10114;SDS011;5097;43.260;27.812;2022-12-16T06:04:06;16.87;;;12.43;;
10114;SDS011;5097;43.260;27.812;2022-12-16T06:07:08;13.17;;;11.77;;
10114;SDS011;5097;43.260;27.812;2022-12-16T06:10:10;12.77;;;11.50;;
10114;SDS011;5097;43.260;27.812;2022-12-16T06:13:12;14.37;;;12.90;;
10114;SDS011;5097;43.260;27.812;2022-12-16T06:16:14;19.80;;;12.30;;
10114;SDS011;5097;43.260;27.812;2022-12-16T06:19:16;13.57;;;12.17;;
10114;SDS011;5097;43.260;27.812;2022-12-16T06:22:18;13.47;;;11.90;;
10114;SDS011;5097;43.260;27.812;2022-12-16T06:25:22;12.87;;;11.50;;
10114;SDS011;5097;43.260;27.812;2022-12-16T06:28:30;11.27;;;10.17;;
10114;SDS011;5097;43.260;27.812;2022-12-16T06:31:31;11.77;;;10.77;;
10114;SDS011;5097;43.260;27.812;2022-12-16T06:34:33;12.70;;;11.50;;
10114;SDS011;5097;43.260;27.812;2022-12-16T06:37:34;11.20;;;10.10;;
10114;SDS011;5097;43.260;27.812;2022-12-16T06:40:34;13.03;;;11.63;;
10114;SDS011;5097;43.260;27.812;2022-12-16T06:43:37;14.33;;;12.97;;
10114;SDS011;5097;43.260;27.812;2022-12-16T06:46:38;17.20;;;15.43;;
10114;SDS011;5097;43.260;27.812;2022-12-16T06:49:40;13.20;;;11.60;;
10114;SDS011;5097;43.260;27.812;2022-12-16T06:52:41;17.43;;;15.63;;
10114;SDS011;5097;43.260;27.812;2022-12-16T06:55:42;12.70;;;10.17;;
10114;SDS011;5097;43.260;27.812;2022-12-16T06:58:45;14.00;;;12.60;;
10114;SDS011;5097;43.260;27.812;2022-12-16T07:01:47;13.60;;;10.90;;
10114;SDS011;5097;43.260;27.812;2022-12-16T07:04:48;14.07;;;12.63;;
10114;SDS011;5097;43.260;27.812;2022-12-16T07:07:50;16.53;;;15.07;;
10114;SDS011;5097;43.260;27.812;2022-12-16T07:10:51;15.47;;;13.77;;
10114;SDS011;5097;43.260;27.812;2022-12-16T07:13:59;13.47;;;11.90;;
10114;SDS011;5097;43.260;27.812;2022-12-16T07:17:00;18.43;;;14.20;;
10114;SDS011;5097;43.260;27.812;2022-12-16T07:20:02;13.23;;;11.83;;
10114;SDS011;5097;43.260;27.812;2022-12-16T07:23:03;12.67;;;11.33;;
10114;SDS011;5097;43.260;27.812;2022-12-16T07:26:05;11.17;;;10.07;;
10114;SDS011;5097;43.260;27.812;2022-12-16T07:29:08;11.13;;;9.80;;
10114;SDS011;5097;43.260;27.812;2022-12-16T07:32:09;11.53;;;10.47;;
10114;SDS011;5097;43.260;27.812;2022-12-16T07:35:10;12.53;;;10.67;;
10114;SDS011;5097;43.260;27.812;2022-12-16T07:38:11;17.03;;;10.90;;
10114;SDS011;5097;43.260;27.812;2022-12-16T07:41:12;13.03;;;10.57;;
10114;SDS011;5097;43.260;27.812;2022-12-16T07:44:15;15.63;;;12.40;;
10114;SDS011;5097;43.260;27.812;2022-12-16T07:47:16;16.53;;;11.00;;
10114;SDS011;5097;43.260;27.812;2022-12-16T07:50:17;10.20;;;9.17;;
10114;SDS011;5097;43.260;27.812;2022-12-16T07:53:19;19.70;;;15.80;;
10114;SDS011;5097;43.260;27.812;2022-12-16T07:56:21;13.33;;;10.80;;
10114;SDS011;5097;43.260;27.812;2022-12-16T07:59:24;14.70;;;10.10;;
10114;SDS011;5097;43.260;27.812;2022-12-16T08:02:25;12.83;;;10.53;;
10114;SDS011;5097;43.260;27.812;2022-12-16T08:05:27;12.67;;;10.73;;
10114;SDS011;5097;43.260;27.812;2022-12-16T08:08:28;14.73;;;10.97;;
10114;SDS011;5097;43.260;27.812;2022-12-16T08:11:29;14.20;;;10.23;;
10114;SDS011;5097;43.260;27.812;2022-12-16T08:14:32;15.40;;;13.00;;
10114;SDS011;5097;43.260;27.812;2022-12-16T08:17:41;13.97;;;10.47;;
10114;SDS011;5097;43.260;27.812;2022-12-16T08:20:42;18.53;;;10.70;;
10114;SDS011;5097;43.260;27.812;2022-12-16T08:23:43;16.77;;;11.47;;
10114;SDS011;5097;43.260;27.812;2022-12-16T08:26:45;12.00;;;10.10;;
10114;SDS011;5097;43.260;27.812;2022-12-16T08:29:48;18.53;;;11.13;;
10114;SDS011;5097;43.260;27.812;2022-12-16T08:32:49;16.33;;;13.03;;
10114;SDS011;5097;43.260;27.812;2022-12-16T08:36:00;18.27;;;12.60;;
10114;SDS011;5097;43.260;27.812;2022-12-16T08:39:01;18.23;;;12.40;;
10114;SDS011;5097;43.260;27.812;2022-12-16T08:42:03;18.43;;;12.70;;
10114;SDS011;5097;43.260;27.812;2022-12-16T08:45:06;17.47;;;12.00;;
10114;SDS011;5097;43.260;27.812;2022-12-16T08:48:07;19.43;;;13.33;;
10114;SDS011;5097;43.260;27.812;2022-12-16T08:51:08;14.63;;;12.97;;
10114;SDS011;5097;43.260;27.812;2022-12-16T08:54:10;16.77;;;12.73;;
10114;SDS011;5097;43.260;27.812;2022-12-16T08:57:11;17.93;;;13.50;;
10114;SDS011;5097;43.260;27.812;2022-12-16T09:00:14;18.60;;;16.37;;
10114;SDS011;5097;43.260;27.812;2022-12-16T09:03:16;23.93;;;17.60;;
10114;SDS011;5097;43.260;27.812;2022-12-16T09:06:18;23.57;;;17.50;;
10114;SDS011;5097;43.260;27.812;2022-12-16T09:09:22;23.73;;;15.90;;
10114;SDS011;5097;43.260;27.812;2022-12-16T09:12:23;22.30;;;18.57;;
10114;SDS011;5097;43.260;27.812;2022-12-16T09:15:26;23.23;;;16.57;;
10114;SDS011;5097;43.260;27.812;2022-12-16T09:18:27;17.97;;;13.90;;
10114;SDS011;5097;43.260;27.812;2022-12-16T09:21:28;20.40;;;14.93;;
10114;SDS011;5097;43.260;27.812;2022-12-16T09:24:30;17.77;;;14.00;;
10114;SDS011;5097;43.260;27.812;2022-12-16T09:27:32;25.53;;;17.30;;
10114;SDS011;5097;43.260;27.812;2022-12-16T09:30:35;25.77;;;16.00;;
10114;SDS011;5097;43.260;27.812;2022-12-16T09:33:36;26.50;;;17.67;;
10114;SDS011;5097;43.260;27.812;2022-12-16T09:36:38;21.60;;;15.03;;
10114;SDS011;5097;43.260;27.812;2022-12-16T09:39:39;27.00;;;17.13;;
10114;SDS011;5097;43.260;27.812;2022-12-16T09:42:43;72.20;;;38.40;;
10114;SDS011;5097;43.260;27.812;2022-12-16T09:45:53;73.17;;;37.70;;
10114;SDS011;5097;43.260;27.812;2022-12-16T09:49:01;74.90;;;43.93;;
10114;SDS011;5097;43.260;27.812;2022-12-16T09:52:14;51.60;;;30.57;;
10114;SDS011;5097;43.260;27.812;2022-12-16T09:55:21;25.77;;;18.73;;
10114;SDS011;5097;43.260;27.812;2022-12-16T09:58:25;21.00;;;14.30;;
10114;SDS011;5097;43.260;27.812;2022-12-16T10:01:33;27.57;;;19.77;;
10114;SDS011;5097;43.260;27.812;2022-12-16T10:04:37;23.87;;;17.93;;
10114;SDS011;5097;43.260;27.812;2022-12-16T10:07:39;24.70;;;13.60;;
10114;SDS011;5097;43.260;27.812;2022-12-16T10:10:48;18.37;;;12.80;;
10114;SDS011;5097;43.260;27.812;2022-12-16T10:13:58;16.47;;;11.67;;
10114;SDS011;5097;43.260;27.812;2022-12-16T10:17:07;21.57;;;13.67;;
10114;SDS011;5097;43.260;27.812;2022-12-16T10:20:14;20.20;;;13.53;;
10114;SDS011;5097;43.260;27.812;2022-12-16T10:23:25;15.37;;;11.33;;
10114;SDS011;5097;43.260;27.812;2022-12-16T10:26:33;20.53;;;12.90;;
10114;SDS011;5097;43.260;27.812;2022-12-16T10:29:42;19.90;;;14.97;;
10114;SDS011;5097;43.260;27.812;2022-12-16T10:32:48;20.13;;;12.30;;
10114;SDS011;5097;43.260;27.812;2022-12-16T10:35:50;16.17;;;11.53;;
10114;SDS011;5097;43.260;27.812;2022-12-16T10:38:53;18.85;;;12.00;;
10114;SDS011;5097;43.260;27.812;2022-12-16T10:41:57;13.95;;;11.50;;
10114;SDS011;5097;43.260;27.812;2022-12-16T10:45:02;14.30;;;10.13;;
10114;SDS011;5097;43.260;27.812;2022-12-16T10:48:06;16.23;;;11.50;;
10114;SDS011;5097;43.260;27.812;2022-12-16T10:51:11;14.55;;;11.45;;
10114;SDS011;5097;43.260;27.812;2022-12-16T10:54:19;14.55;;;9.73;;
10114;SDS011;5097;43.260;27.812;2022-12-16T10:57:29;17.10;;;10.90;;
10114;SDS011;5097;43.260;27.812;2022-12-16T11:00:42;17.17;;;10.88;;
10114;SDS011;5097;43.260;27.812;2022-12-16T11:03:46;17.30;;;11.98;;
10114;SDS011;5097;43.260;27.812;2022-12-16T11:06:47;13.25;;;9.55;;
10114;SDS011;5097;43.260;27.812;2022-12-16T11:09:49;17.13;;;10.88;;
10114;SDS011;5097;43.260;27.812;2022-12-16T11:12:51;16.17;;;11.23;;
10114;SDS011;5097;43.260;27.812;2022-12-16T11:16:08;14.35;;;9.18;;
10114;SDS011;5097;43.260;27.812;2022-12-16T11:19:18;16.90;;;9.57;;
10114;SDS011;5097;43.260;27.812;2022-12-16T11:22:22;13.13;;;7.68;;
10114;SDS011;5097;43.260;27.812;2022-12-16T11:25:23;13.90;;;7.93;;
10114;SDS011;5097;43.260;27.812;2022-12-16T11:28:25;11.52;;;7.80;;
10114;SDS011;5097;43.260;27.812;2022-12-16T11:31:26;14.85;;;8.70;;
10114;SDS011;5097;43.260;27.812;2022-12-16T11:34:29;10.50;;;7.10;;
10114;SDS011;5097;43.260;27.812;2022-12-16T11:37:32;13.05;;;7.18;;
10114;SDS011;5097;43.260;27.812;2022-12-16T11:40:34;13.48;;;7.75;;
10114;SDS011;5097;43.260;27.812;2022-12-16T11:43:37;11.30;;;8.40;;
10114;SDS011;5097;43.260;27.812;2022-12-16T11:46:42;13.45;;;8.45;;
10114;SDS011;5097;43.260;27.812;2022-12-16T11:49:45;14.68;;;8.55;;
10114;SDS011;5097;43.260;27.812;2022-12-16T11:52:49;13.68;;;8.30;;
10114;SDS011;5097;43.260;27.812;2022-12-16T11:55:55;15.48;;;8.30;;
10114;SDS011;5097;43.260;27.812;2022-12-16T11:58:59;9.63;;;7.65;;
10114;SDS011;5097;43.260;27.812;2022-12-16T12:02:03;14.13;;;8.15;;
10114;SDS011;5097;43.260;27.812;2022-12-16T12:05:14;15.05;;;9.02;;
10114;SDS011;5097;43.260;27.812;2022-12-16T12:08:16;16.35;;;10.90;;
10114;SDS011;5097;43.260;27.812;2022-12-16T12:11:27;17.13;;;11.00;;
10114;SDS011;5097;43.260;27.812;2022-12-16T12:14:32;18.88;;;11.68;;
10114;SDS011;5097;43.260;27.812;2022-12-16T12:17:39;28.67;;;12.68;;
10114;SDS011;5097;43.260;27.812;2022-12-16T12:20:50;25.10;;;15.13;;
10114;SDS011;5097;43.260;27.812;2022-12-16T12:24:00;17.33;;;10.68;;
10114;SDS011;5097;43.260;27.812;2022-12-16T12:27:12;17.20;;;9.75;;
10114;SDS011;5097;43.260;27.812;2022-12-16T12:30:21;22.00;;;9.13;;
10114;SDS011;5097;43.260;27.812;2022-12-16T12:33:25;18.02;;;9.60;;
10114;SDS011;5097;43.260;27.812;2022-12-16T12:36:40;15.30;;;9.50;;
10114;SDS011;5097;43.260;27.812;2022-12-16T12:39:49;15.13;;;8.68;;
10114;SDS011;5097;43.260;27.812;2022-12-16T12:42:57;12.27;;;9.70;;
10114;SDS011;5097;43.260;27.812;2022-12-16T12:46:01;14.48;;;9.00;;
10114;SDS011;5097;43.260;27.812;2022-12-16T12:49:11;13.73;;;7.80;;
10114;SDS011;5097;43.260;27.812;2022-12-16T12:52:24;14.45;;;9.05;;
10114;SDS011;5097;43.260;27.812;2022-12-16T12:55:37;16.65;;;9.77;;
10114;SDS011;5097;43.260;27.812;2022-12-16T12:58:42;15.35;;;10.15;;
10114;SDS011;5097;43.260;27.812;2022-12-16T13:01:46;17.30;;;10.02;;
10114;SDS011;5097;43.260;27.812;2022-12-16T13:04:50;13.43;;;9.68;;
10114;SDS011;5097;43.260;27.812;2022-12-16T13:07:53;20.60;;;11.30;;
10114;SDS011;5097;43.260;27.812;2022-12-16T13:11:02;14.77;;;9.25;;
10114;SDS011;5097;43.260;27.812;2022-12-16T13:18:11;21.23;;;11.57;;
10114;SDS011;5097;43.260;27.812;2022-12-16T13:24:47;19.00;;;11.48;;
10114;SDS011;5097;43.260;27.812;2022-12-16T13:27:52;20.85;;;11.95;;
10114;SDS011;5097;43.260;27.812;2022-12-16T13:31:01;14.85;;;9.45;;
10114;SDS011;5097;43.260;27.812;2022-12-16T13:37:27;19.65;;;10.55;;
10114;SDS011;5097;43.260;27.812;2022-12-16T13:40:33;15.30;;;11.27;;
10114;SDS011;5097;43.260;27.812;2022-12-16T13:43:48;12.55;;;8.23;;
10114;SDS011;5097;43.260;27.812;2022-12-16T13:46:52;18.13;;;10.52;;
10114;SDS011;5097;43.260;27.812;2022-12-16T13:49:54;15.63;;;11.98;;
10114;SDS011;5097;43.260;27.812;2022-12-16T13:53:07;19.48;;;12.88;;
10114;SDS011;5097;43.260;27.812;2022-12-16T13:56:13;16.13;;;8.32;;
10114;SDS011;5097;43.260;27.812;2022-12-16T13:59:16;13.77;;;9.23;;
10114;SDS011;5097;43.260;27.812;2022-12-16T14:02:24;16.90;;;10.00;;
10114;SDS011;5097;43.260;27.812;2022-12-16T14:05:32;17.67;;;9.57;;
10114;SDS011;5097;43.260;27.812;2022-12-16T14:08:40;11.95;;;8.55;;
10114;SDS011;5097;43.260;27.812;2022-12-16T14:11:44;21.92;;;9.63;;
10114;SDS011;5097;43.260;27.812;2022-12-16T14:14:50;20.15;;;12.65;;
10114;SDS011;5097;43.260;27.812;2022-12-16T14:17:58;22.10;;;15.10;;
10114;SDS011;5097;43.260;27.812;2022-12-16T14:21:05;25.58;;;20.83;;
10114;SDS011;5097;43.260;27.812;2022-12-16T14:24:21;26.15;;;18.25;;
10114;SDS011;5097;43.260;27.812;2022-12-16T14:27:26;19.02;;;15.30;;
10114;SDS011;5097;43.260;27.812;2022-12-16T14:30:47;34.53;;;22.92;;
10114;SDS011;5097;43.260;27.812;2022-12-16T14:33:51;24.10;;;17.48;;
10114;SDS011;5097;43.260;27.812;2022-12-16T14:36:53;29.77;;;18.00;;
10114;SDS011;5097;43.260;27.812;2022-12-16T14:39:54;32.60;;;19.30;;
10114;SDS011;5097;43.260;27.812;2022-12-16T14:42:57;27.63;;;18.17;;
10114;SDS011;5097;43.260;27.812;2022-12-16T14:45:58;21.80;;;14.88;;
10114;SDS011;5097;43.260;27.812;2022-12-16T14:49:00;24.87;;;15.43;;
10114;SDS011;5097;43.260;27.812;2022-12-16T14:55:28;45.63;;;26.07;;
10114;SDS011;5097;43.260;27.812;2022-12-16T14:58:32;52.70;;;30.47;;
10114;SDS011;5097;43.260;27.812;2022-12-16T15:01:33;56.10;;;32.10;;
10114;SDS011;5097;43.260;27.812;2022-12-16T15:04:35;103.83;;;54.33;;
10114;SDS011;5097;43.260;27.812;2022-12-16T15:07:51;116.17;;;70.33;;
10114;SDS011;5097;43.260;27.812;2022-12-16T15:10:52;64.33;;;41.97;;
10114;SDS011;5097;43.260;27.812;2022-12-16T15:13:56;52.17;;;38.07;;
10114;SDS011;5097;43.260;27.812;2022-12-16T15:17:00;44.50;;;29.73;;
10114;SDS011;5097;43.260;27.812;2022-12-16T15:20:01;52.93;;;40.27;;
10114;SDS011;5097;43.260;27.812;2022-12-16T15:23:03;52.50;;;38.60;;
10114;SDS011;5097;43.260;27.812;2022-12-16T15:26:16;50.50;;;38.77;;
10114;SDS011;5097;43.260;27.812;2022-12-16T15:29:31;56.73;;;42.03;;
10114;SDS011;5097;43.260;27.812;2022-12-16T15:32:34;46.20;;;36.90;;
10114;SDS011;5097;43.260;27.812;2022-12-16T15:35:35;50.73;;;40.43;;
10114;SDS011;5097;43.260;27.812;2022-12-16T15:38:39;56.40;;;44.13;;
10114;SDS011;5097;43.260;27.812;2022-12-16T15:41:40;64.07;;;51.97;;
10114;SDS011;5097;43.260;27.812;2022-12-16T15:45:03;62.63;;;51.43;;
10114;SDS011;5097;43.260;27.812;2022-12-16T15:48:07;47.97;;;39.03;;
10114;SDS011;5097;43.260;27.812;2022-12-16T15:51:22;44.50;;;35.40;;
10114;SDS011;5097;43.260;27.812;2022-12-16T15:54:28;63.57;;;40.43;;
10114;SDS011;5097;43.260;27.812;2022-12-16T15:57:31;63.67;;;47.07;;
10114;SDS011;5097;43.260;27.812;2022-12-16T16:00:34;60.23;;;43.37;;
10114;SDS011;5097;43.260;27.812;2022-12-16T16:03:36;75.87;;;54.57;;
10114;SDS011;5097;43.260;27.812;2022-12-16T16:06:40;65.37;;;54.23;;
10114;SDS011;5097;43.260;27.812;2022-12-16T16:09:45;74.30;;;53.90;;
10114;SDS011;5097;43.260;27.812;2022-12-16T16:12:47;61.07;;;49.90;;
10114;SDS011;5097;43.260;27.812;2022-12-16T16:15:46;60.07;;;48.63;;
10114;SDS011;5097;43.260;27.812;2022-12-16T16:18:47;79.37;;;70.77;;
10114;SDS011;5097;43.260;27.812;2022-12-16T16:21:49;49.63;;;43.40;;
10114;SDS011;5097;43.260;27.812;2022-12-16T16:24:50;44.10;;;36.20;;
10114;SDS011;5097;43.260;27.812;2022-12-16T16:27:51;74.37;;;66.37;;
10114;SDS011;5097;43.260;27.812;2022-12-16T16:30:54;35.97;;;30.43;;
10114;SDS011;5097;43.260;27.812;2022-12-16T16:33:55;50.63;;;38.07;;
10114;SDS011;5097;43.260;27.812;2022-12-16T16:36:57;42.50;;;36.37;;
10114;SDS011;5097;43.260;27.812;2022-12-16T16:39:58;36.17;;;26.87;;
10114;SDS011;5097;43.260;27.812;2022-12-16T16:43:00;38.07;;;29.57;;
10114;SDS011;5097;43.260;27.812;2022-12-16T16:46:04;40.37;;;34.13;;
10114;SDS011;5097;43.260;27.812;2022-12-16T16:49:17;48.00;;;38.77;;
10114;SDS011;5097;43.260;27.812;2022-12-16T16:52:22;68.37;;;58.43;;
10114;SDS011;5097;43.260;27.812;2022-12-16T16:55:25;73.23;;;65.43;;
10114;SDS011;5097;43.260;27.812;2022-12-16T16:58:27;61.03;;;53.53;;
10114;SDS011;5097;43.260;27.812;2022-12-16T17:01:32;43.67;;;36.70;;
10114;SDS011;5097;43.260;27.812;2022-12-16T17:04:33;46.30;;;34.97;;
10114;SDS011;5097;43.260;27.812;2022-12-16T17:07:35;38.33;;;30.33;;
10114;SDS011;5097;43.260;27.812;2022-12-16T17:10:36;39.30;;;27.73;;
10114;SDS011;5097;43.260;27.812;2022-12-16T17:13:38;49.80;;;43.03;;
10114;SDS011;5097;43.260;27.812;2022-12-16T17:16:40;44.80;;;31.73;;
10114;SDS011;5097;43.260;27.812;2022-12-16T17:19:41;58.70;;;45.97;;
10114;SDS011;5097;43.260;27.812;2022-12-16T17:22:44;73.73;;;64.03;;
10114;SDS011;5097;43.260;27.812;2022-12-16T17:25:46;56.47;;;46.23;;
10114;SDS011;5097;43.260;27.812;2022-12-16T17:28:48;55.63;;;49.33;;
10114;SDS011;5097;43.260;27.812;2022-12-16T17:31:52;40.10;;;27.93;;
10114;SDS011;5097;43.260;27.812;2022-12-16T17:34:53;36.57;;;25.20;;
10114;SDS011;5097;43.260;27.812;2022-12-16T17:37:55;32.47;;;24.97;;
10114;SDS011;5097;43.260;27.812;2022-12-16T17:40:56;40.93;;;29.97;;
10114;SDS011;5097;43.260;27.812;2022-12-16T17:43:58;41.90;;;30.53;;
10114;SDS011;5097;43.260;27.812;2022-12-16T17:47:12;38.50;;;29.30;;
10114;SDS011;5097;43.260;27.812;2022-12-16T17:50:13;36.13;;;28.97;;
10114;SDS011;5097;43.260;27.812;2022-12-16T17:53:15;45.57;;;33.80;;
10114;SDS011;5097;43.260;27.812;2022-12-16T17:56:17;35.27;;;28.43;;